createdAt,value
2023-03-22T00:03:17.517Z,33.13
2023-03-22T00:07:17.626Z,33.08
2023-03-22T00:11:17.711Z,33.10
2023-03-22T00:15:17.836Z,33.11
2023-03-22T00:19:17.928Z,33.08
2023-03-22T00:23:17.975Z,33.07
2023-03-22T00:27:18.017Z,33.05
2023-03-22T00:31:18.039Z,33.02
2023-03-22T00:35:20.656Z,33.05
2023-03-22T00:39:18.665Z,32.98
2023-03-22T00:43:18.232Z,32.99
2023-03-22T00:47:18.130Z,32.99
2023-03-22T00:51:18.195Z,32.97
2023-03-22T00:55:18.102Z,32.91
2023-03-22T00:59:18.104Z,32.95
2023-03-22T01:03:18.120Z,32.89
2023-03-22T01:07:18.066Z,32.88
2023-03-22T01:11:18.028Z,32.84
2023-03-22T01:15:17.994Z,32.84
2023-03-22T01:19:18.082Z,32.88
2023-03-22T01:23:18.030Z,32.82
2023-03-22T01:27:17.956Z,32.80
2023-03-22T01:31:18.043Z,32.78
2023-03-22T01:35:17.895Z,32.80
2023-03-22T01:39:17.871Z,32.82
2023-03-22T01:43:17.869Z,32.78
2023-03-22T01:47:17.833Z,32.75
2023-03-22T01:51:17.857Z,32.78
2023-03-22T01:55:17.860Z,32.73
2023-03-22T01:59:17.784Z,32.73
2023-03-22T02:03:17.895Z,32.73
2023-03-22T02:07:20.667Z,32.68
2023-03-22T02:11:18.636Z,32.72
2023-03-22T02:15:17.724Z,32.69
2023-03-22T02:19:17.752Z,32.66
2023-03-22T02:23:17.739Z,32.66
2023-03-22T02:27:17.636Z,32.62
2023-03-22T02:31:17.639Z,32.63
2023-03-22T02:35:20.319Z,32.60
2023-03-22T02:39:17.509Z,32.59
2023-03-22T02:43:17.482Z,32.60
2023-03-22T02:47:17.400Z,32.62
2023-03-22T02:51:17.371Z,32.59
2023-03-22T02:55:17.344Z,32.57
2023-03-22T02:59:17.352Z,32.54
2023-03-22T03:03:17.265Z,32.57
2023-03-22T03:07:17.254Z,32.54
2023-03-22T03:11:17.235Z,32.53
2023-03-22T03:15:17.161Z,32.51
2023-03-22T03:19:17.125Z,32.46
2023-03-22T03:23:17.121Z,32.47
2023-03-22T03:27:17.189Z,32.50
2023-03-22T03:31:17.713Z,32.50
2023-03-22T03:35:17.144Z,32.45
2023-03-22T03:39:16.922Z,32.46
2023-03-22T03:43:16.898Z,32.40
2023-03-22T03:47:16.861Z,32.40
2023-03-22T03:51:16.844Z,32.40
2023-03-22T03:55:17.212Z,32.40
2023-03-22T03:59:16.753Z,32.40
2023-03-22T04:03:16.819Z,32.42
2023-03-22T04:07:16.698Z,32.37
2023-03-22T04:11:16.708Z,32.32
2023-03-22T04:15:16.648Z,32.34
2023-03-22T04:19:16.614Z,32.35
2023-03-22T04:23:16.518Z,32.35
2023-03-22T04:27:16.498Z,32.38
2023-03-22T04:31:16.541Z,32.33
2023-03-22T04:35:16.510Z,32.33
2023-03-22T04:39:16.415Z,32.33
2023-03-22T04:43:16.385Z,32.29
2023-03-22T04:47:16.333Z,32.31
2023-03-22T04:51:16.329Z,32.28
2023-03-22T04:55:16.292Z,32.29
2023-03-22T04:59:16.234Z,32.28
2023-03-22T05:03:16.204Z,32.25
2023-03-22T05:07:16.237Z,32.26
2023-03-22T05:11:16.109Z,32.23
2023-03-22T05:15:16.779Z,32.22
2023-03-22T05:19:16.036Z,32.21
2023-03-22T05:23:16.018Z,32.22
2023-03-22T05:27:16.003Z,32.12
2023-03-22T05:31:16.280Z,32.05
2023-03-22T05:35:15.915Z,31.81
2023-03-22T05:39:16.193Z,31.54
2023-03-22T05:43:16.469Z,31.15
2023-03-22T05:47:16.541Z,30.83
2023-03-22T05:51:16.659Z,30.51
2023-03-22T05:55:16.711Z,30.43
2023-03-22T05:59:16.788Z,30.30
2023-03-22T06:03:17.086Z,30.19
2023-03-22T06:07:16.782Z,30.06
2023-03-22T06:11:16.771Z,29.94
2023-03-22T06:15:16.892Z,29.86
2023-03-22T06:19:18.306Z,29.87
2023-03-22T06:23:16.844Z,29.74
2023-03-22T06:27:17.329Z,29.69
2023-03-22T06:31:18.484Z,29.53
2023-03-22T06:35:16.958Z,29.65
2023-03-22T06:39:17.407Z,30.27
2023-03-22T06:43:30.810Z,32.43
2023-03-22T06:47:17.183Z,33.55
2023-03-22T06:51:18.174Z,34.97
2023-03-22T06:55:18.757Z,34.94
2023-03-22T07:03:35.982Z,35.39
2023-03-22T07:07:35.559Z,35.33
2023-03-22T07:15:54.352Z,35.30
2023-03-22T07:19:54.505Z,35.34
2023-03-22T07:23:54.696Z,35.18
2023-03-22T07:27:54.665Z,35.55
2023-03-22T07:31:54.617Z,35.18
2023-03-22T07:35:55.083Z,34.68
2023-03-22T07:39:56.833Z,34.01
2023-03-22T07:44:04.827Z,34.77
2023-03-22T07:47:55.849Z,34.67
2023-03-22T07:51:54.606Z,33.55
2023-03-22T07:55:54.628Z,34.53
2023-03-22T07:59:55.044Z,36.03
2023-03-22T08:03:55.124Z,34.20
2023-03-22T08:07:54.891Z,33.11
2023-03-22T08:11:54.754Z,33.48
2023-03-22T08:15:55.087Z,32.82
2023-03-22T08:19:54.833Z,32.61
2023-03-22T08:23:54.789Z,32.96
2023-03-22T08:27:54.952Z,32.35
2023-03-22T08:31:55.859Z,31.64
2023-03-22T08:35:54.838Z,31.69
2023-03-22T08:39:54.766Z,29.74
2023-03-22T08:43:54.959Z,29.33
2023-03-22T08:47:55.257Z,28.94
2023-03-22T08:51:55.207Z,29.04
2023-03-22T08:55:55.290Z,28.23
2023-03-22T08:59:55.491Z,27.68
2023-03-22T09:03:55.326Z,27.61
2023-03-22T09:08:00.590Z,26.97
2023-03-22T09:11:56.314Z,26.81
2023-03-22T09:15:55.366Z,26.94
2023-03-22T09:20:09.397Z,27.16
2023-03-22T09:23:56.489Z,27.18
2023-03-22T09:27:59.954Z,26.33
2023-03-22T09:31:55.750Z,26.17
2023-03-22T09:35:57.101Z,25.71
2023-03-22T09:39:57.048Z,25.67
2023-03-22T09:48:14.150Z,28.00
2023-03-22T09:52:13.992Z,28.73
2023-03-22T09:56:14.595Z,29.53
2023-03-22T10:00:13.699Z,29.82
2023-03-22T10:04:13.857Z,30.48
2023-03-22T10:08:13.615Z,30.65
2023-03-22T10:12:14.801Z,30.83
2023-03-22T10:16:13.837Z,30.56
2023-03-22T10:20:14.228Z,31.29
2023-03-22T10:24:14.149Z,31.45
2023-03-22T10:28:14.369Z,31.84
2023-03-22T10:32:14.966Z,32.43
2023-03-22T10:36:14.539Z,32.58
2023-03-22T10:40:14.779Z,29.37
2023-03-22T10:44:15.620Z,27.78
2023-03-22T10:48:16.268Z,26.99
2023-03-22T10:52:15.475Z,27.04
2023-03-22T10:56:14.822Z,25.90
2023-03-22T11:00:15.186Z,25.49
2023-03-22T11:04:14.769Z,25.38
2023-03-22T11:08:14.638Z,24.75
2023-03-22T11:12:14.598Z,24.26
2023-03-22T11:16:14.782Z,24.35
2023-03-22T11:20:14.608Z,24.12
2023-03-22T11:24:14.873Z,24.01
2023-03-22T11:28:14.542Z,23.98
2023-03-22T11:32:14.451Z,24.05
2023-03-22T11:36:14.464Z,23.95
2023-03-22T11:40:14.591Z,23.88
2023-03-22T11:44:14.726Z,23.92
2023-03-22T11:48:15.034Z,23.96
2023-03-22T11:52:14.984Z,23.63
2023-03-22T11:56:15.217Z,22.93
2023-03-22T12:00:15.233Z,23.17
2023-03-22T12:04:15.168Z,22.43
2023-03-22T12:08:15.102Z,22.61
2023-03-22T12:12:15.150Z,22.82
2023-03-22T12:16:15.212Z,22.38
2023-03-22T12:20:15.026Z,23.71
2023-03-22T12:24:14.924Z,23.94
2023-03-22T12:28:14.886Z,24.10
2023-03-22T12:32:14.862Z,24.25
2023-03-22T12:36:14.909Z,24.28
2023-03-22T12:40:14.850Z,24.39
2023-03-22T12:44:15.058Z,24.58
2023-03-22T12:48:15.232Z,24.85
2023-03-22T12:52:15.337Z,24.92
2023-03-22T12:56:15.594Z,24.99
2023-03-22T13:00:15.804Z,25.18
2023-03-22T13:04:16.038Z,25.28
2023-03-22T13:08:16.197Z,25.41
2023-03-22T13:12:16.393Z,25.52
2023-03-22T13:16:16.597Z,25.57
2023-03-22T13:20:16.780Z,25.65
2023-03-22T13:24:16.959Z,25.69
2023-03-22T13:28:17.332Z,25.84
2023-03-22T13:32:17.403Z,25.91
2023-03-22T13:36:17.505Z,25.97
2023-03-22T13:40:17.665Z,26.02
2023-03-22T13:44:17.893Z,26.12
2023-03-22T13:48:18.698Z,26.15
2023-03-22T13:52:18.238Z,26.21
2023-03-22T13:56:18.440Z,26.30
2023-03-22T14:00:20.417Z,26.25
2023-03-22T14:04:18.769Z,26.25
2023-03-22T14:08:18.969Z,26.31
2023-03-22T14:12:19.228Z,26.37
2023-03-22T14:16:19.345Z,26.35
2023-03-22T14:20:19.535Z,26.38
2023-03-22T14:49:20.700Z,26.56
2023-03-22T14:53:20.918Z,26.58
2023-03-22T14:57:28.374Z,26.59
2023-03-22T15:01:21.895Z,26.58
2023-03-22T15:05:21.023Z,26.64
2023-03-22T15:09:20.817Z,26.73
2023-03-22T15:13:21.436Z,26.79
2023-03-22T15:17:21.165Z,26.84
2023-03-22T15:21:21.458Z,26.85
2023-03-22T15:25:21.494Z,26.95
2023-03-22T15:29:21.740Z,26.96
2023-03-22T15:33:21.834Z,27.05
2023-03-22T15:37:22.014Z,27.52
2023-03-22T15:41:22.224Z,27.80
2023-03-22T15:45:23.081Z,29.64
2023-03-22T15:49:22.543Z,30.16
2023-03-22T15:53:22.745Z,30.76
2023-03-22T15:57:23.024Z,30.33
2023-03-22T16:01:23.160Z,30.36
2023-03-22T16:05:23.309Z,30.39
2023-03-22T16:09:23.490Z,30.40
2023-03-22T16:13:23.658Z,30.40
2023-03-22T16:17:23.911Z,30.34
2023-03-22T16:21:24.021Z,30.26
2023-03-22T16:25:24.246Z,30.19
2023-03-22T16:29:24.989Z,30.26
2023-03-22T16:33:24.686Z,30.25
2023-03-22T16:37:24.897Z,30.17
2023-03-22T16:41:25.130Z,30.16
2023-03-22T16:45:25.065Z,30.17
2023-03-22T16:49:25.021Z,30.13
2023-03-22T16:53:25.092Z,30.10
2023-03-22T16:57:24.995Z,30.19
2023-03-22T17:01:25.092Z,30.04
2023-03-22T17:05:25.019Z,30.05
2023-03-22T17:09:25.055Z,30.09
2023-03-22T17:13:25.032Z,30.03
2023-03-22T17:17:26.004Z,30.03
2023-03-22T17:21:24.900Z,30.02
2023-03-22T17:25:24.844Z,30.03
2023-03-22T17:29:24.973Z,30.00
2023-03-22T17:33:24.896Z,29.97
2023-03-22T17:37:25.131Z,30.01
2023-03-22T17:41:24.973Z,29.97
2023-03-22T17:45:27.442Z,29.98
2023-03-22T17:49:25.239Z,29.94
2023-03-22T17:54:04.934Z,29.96
2023-03-22T18:01:26.263Z,29.99
2023-03-22T18:05:31.943Z,29.94
2023-03-22T18:09:26.119Z,29.94
2023-03-22T18:13:25.146Z,29.91
2023-03-22T18:17:25.099Z,29.89
2023-03-22T18:21:25.072Z,29.88
2023-03-22T18:25:26.976Z,29.84
2023-03-22T18:29:25.976Z,29.88
2023-03-22T18:33:24.971Z,29.84
2023-03-22T18:41:40.886Z,29.77
2023-03-22T18:45:32.489Z,29.88
2023-03-22T18:49:25.846Z,29.83
2023-03-22T18:53:24.787Z,29.80
2023-03-22T18:57:25.915Z,29.77
2023-03-22T19:01:25.707Z,29.80
2023-03-22T19:05:24.665Z,29.69
2023-03-22T19:09:24.613Z,29.61
2023-03-22T19:13:24.589Z,29.60
2023-03-22T19:17:24.703Z,29.60
2023-03-22T19:21:32.349Z,29.59
2023-03-22T19:25:25.486Z,29.54
2023-03-22T19:29:24.504Z,29.55
2023-03-22T19:33:34.747Z,29.51
2023-03-22T19:37:25.412Z,29.45
2023-03-22T19:45:25.356Z,29.40
2023-03-22T19:49:24.303Z,29.35
2023-03-22T19:54:12.109Z,29.29
2023-03-22T19:57:25.214Z,29.26
2023-03-22T20:01:24.205Z,29.26
2023-03-22T20:05:24.180Z,29.28
2023-03-22T20:09:24.109Z,29.15
2023-03-22T20:13:24.080Z,29.14
2023-03-22T20:17:26.388Z,29.05
2023-03-22T20:21:24.229Z,29.09
2023-03-22T20:25:24.582Z,29.06
2023-03-22T20:29:24.430Z,29.07
2023-03-22T20:33:24.456Z,29.12
2023-03-22T20:37:24.529Z,29.10
2023-03-22T20:41:24.588Z,29.13
2023-03-22T20:45:24.682Z,29.21
2023-03-22T20:49:24.701Z,29.21
2023-03-22T20:53:24.769Z,29.20
2023-03-22T20:57:24.844Z,29.24
2023-03-22T21:01:24.920Z,29.32
2023-03-22T21:05:24.979Z,29.27
2023-03-22T21:09:25.576Z,29.30
2023-03-22T21:13:25.176Z,29.31
2023-03-22T21:17:25.261Z,29.31
2023-03-22T21:21:25.345Z,29.38
2023-03-22T21:25:25.415Z,29.34
2023-03-22T21:29:25.547Z,29.37
2023-03-22T21:33:25.620Z,29.39
2023-03-22T21:37:25.695Z,29.39
2023-03-22T21:41:25.811Z,29.46
2023-03-22T21:45:25.882Z,29.48
2023-03-22T21:49:26.018Z,29.50
2023-03-22T21:53:26.095Z,29.45
2023-03-22T21:57:26.272Z,29.49
2023-03-22T22:01:26.623Z,29.55
2023-03-22T22:05:26.445Z,29.50
2023-03-22T22:09:26.634Z,29.55
2023-03-22T22:13:27.616Z,29.60
2023-03-22T22:17:26.751Z,29.56
2023-03-22T22:21:26.823Z,29.55
2023-03-22T22:25:27.008Z,29.60
2023-03-22T22:29:27.111Z,29.64
2023-03-22T22:33:27.251Z,29.59
2023-03-22T22:37:27.324Z,29.67
2023-03-22T22:41:27.431Z,29.63
2023-03-22T22:45:27.574Z,29.63
2023-03-22T22:49:27.657Z,29.67
2023-03-22T22:53:27.732Z,29.66
2023-03-22T22:57:27.854Z,29.68
2023-03-22T23:01:27.977Z,29.63
2023-03-22T23:05:28.085Z,29.67
2023-03-22T23:09:28.231Z,29.67
2023-03-22T23:13:28.305Z,29.73
2023-03-22T23:17:28.669Z,29.70
2023-03-22T23:21:28.549Z,29.71
2023-03-22T23:25:28.692Z,29.74
2023-03-22T23:29:28.918Z,29.71
2023-03-22T23:33:28.909Z,29.74
2023-03-22T23:37:29.069Z,29.74
2023-03-22T23:41:29.606Z,29.74
2023-03-22T23:45:29.270Z,29.75
2023-03-22T23:49:29.380Z,29.76
2023-03-22T23:53:29.570Z,29.80
2023-03-22T23:57:29.724Z,29.73
